Time;durP1;ratioP1;P1;durP2;ratioP2;P2;SDS_P1;SDS_P2;PMS_P1;PMS_P2;Temp;Humidity;BMP_temperature;BMP_pressure;BME280_temperature;BME280_humidity;BME280_pressure;Samples;Min_cycle;Max_cycle;Signal;HPM_P1;HPM_P2
2023/09/01 00:00:43;;;;;;;8.82;4.78;;;;;;;14.38;100.00;97194.06;5077065;28;20407;-75
2023/09/01 00:03:09;;;;;;;7.65;4.90;;;;;;;14.41;100.00;97201.50;5076285;28;20410;-75
2023/09/01 00:05:37;;;;;;;7.88;4.32;;;;;;;14.43;100.00;97188.72;5076863;28;20532;-75
2023/09/01 00:08:06;;;;;;;6.55;4.20;;;;;;;14.45;100.00;97194.53;5057910;28;20415;-75
2023/09/01 00:10:39;;;;;;;5.13;3.42;;;;;;;14.45;100.00;97189.22;5076535;28;20788;-75
2023/09/01 00:13:06;;;;;;;8.68;3.28;;;;;;;14.45;100.00;97191.06;5076023;28;20437;-75
2023/09/01 00:15:34;;;;;;;6.03;3.43;;;;;;;14.44;100.00;97189.47;5076078;28;20480;-75
2023/09/01 00:18:03;;;;;;;5.75;3.63;;;;;;;14.43;100.00;97193.25;5076344;28;20387;-75
2023/09/01 00:20:34;;;;;;;6.32;3.55;;;;;;;14.41;100.00;97198.06;5057369;28;20469;-75
2023/09/01 00:23:01;;;;;;;5.60;3.55;;;;;;;14.39;100.00;97195.66;5075968;28;20445;-75
2023/09/01 00:25:29;;;;;;;5.15;3.08;;;;;;;14.38;100.00;97185.25;5060123;28;20403;-75
2023/09/01 00:27:55;;;;;;;6.22;3.35;;;;;;;14.38;100.00;97178.09;5078641;28;20892;-75
2023/09/01 00:30:23;;;;;;;8.45;3.83;;;;;;;14.39;100.00;97186.88;5080457;28;20408;-75
2023/09/01 00:32:49;;;;;;;5.38;3.70;;;;;;;14.40;100.00;97188.47;5080016;28;20849;-75
2023/09/01 00:35:15;;;;;;;7.40;3.90;;;;;;;14.41;100.00;97190.06;5080210;28;20402;-75
2023/09/01 00:37:42;;;;;;;7.75;4.15;;;;;;;14.39;100.00;97187.66;5080287;28;20403;-75
2023/09/01 00:40:09;;;;;;;6.15;3.80;;;;;;;14.37;100.00;97175.66;5079903;28;20487;-75
2023/09/01 00:42:37;;;;;;;10.27;4.50;;;;;;;14.30;100.00;97173.34;5079423;28;20403;-75
2023/09/01 00:45:04;;;;;;;10.95;4.47;;;;;;;14.32;100.00;97169.31;5080146;28;20486;-75
2023/09/01 00:47:32;;;;;;;11.00;5.20;;;;;;;14.30;100.00;97171.47;5061968;28;20440;-75
2023/09/01 00:50:02;;;;;;;11.70;5.32;;;;;;;14.30;100.00;97182.13;5062361;28;20418;-75
2023/09/01 00:52:28;;;;;;;7.40;4.43;;;;;;;14.34;100.00;97177.84;5079610;28;20411;-75
2023/09/01 00:54:55;;;;;;;8.45;4.35;;;;;;;14.37;100.00;97178.34;5080262;28;20403;-75
2023/09/01 00:57:21;;;;;;;8.38;4.25;;;;;;;14.39;100.00;97169.03;5079463;28;20404;-75
2023/09/01 00:59:47;;;;;;;4.93;3.53;;;;;;;14.40;100.00;97173.28;5080549;28;20404;-75
2023/09/01 01:02:14;;;;;;;7.95;4.30;;;;;;;14.41;100.00;97180.22;5062600;28;20408;-75
2023/09/01 01:04:41;;;;;;;11.30;5.07;;;;;;;14.44;100.00;97178.84;5061977;28;20493;-75
2023/09/01 01:07:22;;;;;;;7.50;4.43;;;;;;;14.46;100.00;97174.81;5080593;28;20404;-75
2023/09/01 01:10:01;;;;;;;9.70;4.78;;;;;;;14.42;100.00;97173.81;5080873;28;20439;-75
2023/09/01 01:12:35;;;;;;;6.15;4.00;;;;;;;14.45;100.00;97175.09;5080179;28;20431;-75
2023/09/01 01:15:09;;;;;;;5.80;3.72;;;;;;;14.47;100.00;97167.63;5079790;28;20403;-75
2023/09/01 01:17:38;;;;;;;4.97;3.35;;;;;;;14.48;100.00;97170.03;5080783;28;20395;-75
2023/09/01 01:20:20;;;;;;;8.73;4.75;;;;;;;14.49;100.00;97168.16;5061247;28;20407;-75
2023/09/01 01:22:50;;;;;;;7.90;4.65;;;;;;;14.45;100.00;97170.56;5079432;28;20495;-75
2023/09/01 01:25:20;;;;;;;8.23;4.20;;;;;;;14.40;100.00;97164.50;5064223;28;20403;-76
2023/09/01 01:27:46;;;;;;;9.53;4.70;;;;;;;14.26;100.00;97167.00;5062213;28;20445;-75
2023/09/01 01:30:15;;;;;;;7.30;4.30;;;;;;;14.14;100.00;97169.22;5057341;28;20411;-74
2023/09/01 01:32:43;;;;;;;6.70;4.10;;;;;;;14.04;100.00;97175.44;5073400;28;20407;-74
2023/09/01 01:35:17;;;;;;;8.75;4.68;;;;;;;13.96;100.00;97178.69;5073091;28;20396;-74
2023/09/01 01:37:50;;;;;;;10.70;4.97;;;;;;;13.90;100.00;97175.28;5066605;28;20404;-74
2023/09/01 01:40:21;;;;;;;15.45;6.30;;;;;;;13.86;100.00;97176.88;5073812;28;20870;-74
2023/09/01 01:42:50;;;;;;;16.00;6.70;;;;;;;13.83;100.00;97174.00;5073123;28;20396;-74
2023/09/01 01:45:21;;;;;;;16.23;7.40;;;;;;;13.77;100.00;97175.88;5073398;28;20810;-74
2023/09/01 01:47:48;;;;;;;13.15;6.25;;;;;;;13.79;100.00;97173.72;5073148;28;20418;-74
2023/09/01 01:50:14;;;;;;;19.02;7.30;;;;;;;13.75;100.00;97177.22;5073147;28;20743;-74
2023/09/01 01:52:40;;;;;;;15.18;6.50;;;;;;;13.76;100.00;97168.94;5072369;28;20916;-74
2023/09/01 01:55:07;;;;;;;11.00;6.00;;;;;;;13.81;100.00;97168.94;5072347;28;20404;-75
2023/09/01 01:57:36;;;;;;;12.35;6.38;;;;;;;13.85;100.00;97166.50;5053896;28;20765;-74
2023/09/01 02:00:03;;;;;;;12.48;6.20;;;;;;;13.86;100.00;97163.56;5071494;28;20396;-74
2023/09/01 02:02:30;;;;;;;12.20;5.70;;;;;;;13.89;100.00;97159.56;5071650;28;20404;-74
2023/09/01 02:04:56;;;;;;;13.20;6.13;;;;;;;13.89;100.00;97163.03;5071922;28;20403;-74
2023/09/01 02:07:22;;;;;;;15.45;6.63;;;;;;;13.89;100.00;97165.69;5071730;28;20438;-74
2023/09/01 02:09:48;;;;;;;9.23;5.33;;;;;;;13.94;100.00;97165.66;5071952;28;20461;-73
2023/09/01 02:12:14;;;;;;;17.80;6.47;;;;;;;13.98;100.00;97170.41;5071333;28;20881;-74
2023/09/01 02:14:42;;;;;;;12.75;6.05;;;;;;;13.99;100.00;97172.00;5071681;28;20495;-74
2023/09/01 02:17:08;;;;;;;13.38;6.25;;;;;;;14.00;100.00;97173.56;5071631;28;20411;-73
2023/09/01 02:19:34;;;;;;;11.73;5.10;;;;;;;14.03;100.00;97173.03;5071432;28;20773;-73
2023/09/01 02:22:00;;;;;;;12.80;5.32;;;;;;;14.03;100.00;97170.38;5071226;28;20406;-73
2023/09/01 02:24:27;;;;;;;10.25;4.90;;;;;;;14.06;100.00;97175.91;5071182;28;20403;-73
2023/09/01 02:26:53;;;;;;;14.05;5.60;;;;;;;14.08;100.00;97167.66;5071532;28;20407;-73
2023/09/01 02:29:19;;;;;;;10.27;5.78;;;;;;;14.12;100.00;97171.38;5071495;28;20488;-73
2023/09/01 02:31:47;;;;;;;9.27;4.53;;;;;;;14.11;100.00;97175.09;5071398;28;20766;-73
2023/09/01 02:34:14;;;;;;;9.23;4.38;;;;;;;14.11;100.00;97175.91;5071623;28;20536;-74
2023/09/01 02:36:40;;;;;;;6.43;3.80;;;;;;;14.13;100.00;97179.09;5071631;28;20494;-73
2023/09/01 02:39:06;;;;;;;6.53;3.67;;;;;;;14.15;100.00;97179.59;5071314;28;20391;-75
2023/09/01 02:41:33;;;;;;;9.80;4.72;;;;;;;14.16;100.00;97175.84;5071455;28;20395;-75
2023/09/01 02:43:59;;;;;;;7.15;3.75;;;;;;;14.19;100.00;97185.97;5071518;28;20439;-75
2023/09/01 02:46:25;;;;;;;12.73;5.35;;;;;;;14.21;100.00;97188.31;5071084;28;20408;-75
2023/09/01 02:48:53;;;;;;;9.75;4.63;;;;;;;14.23;100.00;97186.97;5070360;28;20419;-75
2023/09/01 02:51:19;;;;;;;11.25;4.70;;;;;;;14.24;100.00;97182.44;5070713;28;20403;-75
2023/09/01 02:53:46;;;;;;;10.27;4.78;;;;;;;14.24;100.00;97188.56;5071199;28;20396;-75
2023/09/01 02:56:12;;;;;;;12.13;4.70;;;;;;;14.23;100.00;97180.84;5071841;28;20766;-75
2023/09/01 02:58:38;;;;;;;7.78;4.32;;;;;;;14.20;100.00;97179.56;5071739;28;20405;-75
2023/09/01 03:01:07;;;;;;;13.93;4.97;;;;;;;14.16;100.00;97181.19;5071400;28;20952;-75
2023/09/01 03:03:34;;;;;;;9.57;4.37;;;;;;;14.21;100.00;97175.00;5072298;28;20775;-75
2023/09/01 03:06:05;;;;;;;15.00;4.90;;;;;;;14.19;100.00;97183.28;5072441;28;20817;-76
2023/09/01 03:08:32;;;;;;;7.78;3.70;;;;;;;14.24;100.00;97180.56;5072164;28;20917;-75
2023/09/01 03:10:58;;;;;;;7.53;3.90;;;;;;;14.25;100.00;97179.50;5071727;28;20534;-75
2023/09/01 03:13:24;;;;;;;6.90;3.70;;;;;;;14.28;100.00;97186.16;5072480;28;20399;-75
2023/09/01 03:15:52;;;;;;;5.75;3.63;;;;;;;14.30;100.00;97189.31;5072063;28;20830;-75
2023/09/01 03:18:19;;;;;;;5.32;3.40;;;;;;;14.31;100.00;97188.25;5071858;28;20392;-75
2023/09/01 03:20:45;;;;;;;7.82;3.83;;;;;;;14.28;100.00;97186.16;5072258;28;20770;-75
2023/09/01 03:23:12;;;;;;;9.68;3.95;;;;;;;14.27;100.00;97190.69;5053577;28;20450;-75
2023/09/01 03:25:39;;;;;;;7.90;3.50;;;;;;;14.30;100.00;97203.41;5062703;28;20404;-75
2023/09/01 03:28:05;;;;;;;9.75;3.85;;;;;;;14.30;100.00;97192.78;5071382;28;20451;-75
2023/09/01 03:30:32;;;;;;;6.13;3.80;;;;;;;14.32;100.00;97198.63;5071566;28;20921;-75
2023/09/01 03:32:58;;;;;;;5.07;2.97;;;;;;;14.37;100.00;97192.44;5052226;28;20472;-75
2023/09/01 03:35:24;;;;;;;9.05;3.97;;;;;;;14.36;100.00;97192.75;5070481;28;20477;-75
2023/09/01 03:37:50;;;;;;;10.68;4.30;;;;;;;14.29;100.00;97193.03;5070679;28;20403;-75
2023/09/01 03:40:18;;;;;;;7.78;3.50;;;;;;;14.31;100.00;97202.34;5070915;28;20913;-75
2023/09/01 03:42:44;;;;;;;7.13;4.10;;;;;;;14.36;100.00;97198.06;5072035;28;20735;-75
2023/09/01 03:45:11;;;;;;;8.68;3.70;;;;;;;14.32;100.00;97195.97;5072483;28;20411;-75
2023/09/01 03:47:37;;;;;;;6.18;3.40;;;;;;;14.33;100.00;97194.88;5072302;28;20503;-75
2023/09/01 03:50:04;;;;;;;7.57;3.63;;;;;;;14.33;100.00;97197.56;5073788;28;20940;-75
2023/09/01 03:52:30;;;;;;;5.72;3.25;;;;;;;14.32;100.00;97195.97;5074889;28;20416;-75
2023/09/01 03:54:56;;;;;;;6.97;3.50;;;;;;;14.32;100.00;97195.16;5056360;28;20412;-75
2023/09/01 03:57:24;;;;;;;5.75;3.08;;;;;;;14.30;100.00;97191.97;5073083;28;20558;-75
2023/09/01 03:59:51;;;;;;;7.50;3.40;;;;;;;14.26;100.00;97191.75;5074345;28;20399;-75
2023/09/01 04:02:17;;;;;;;5.90;3.08;;;;;;;14.23;100.00;97197.63;5074647;28;20410;-75
2023/09/01 04:04:43;;;;;;;5.72;3.03;;;;;;;14.20;100.00;97186.75;5074893;28;20399;-75
2023/09/01 04:07:10;;;;;;;6.32;3.22;;;;;;;14.18;100.00;97191.56;5074882;28;20806;-75
2023/09/01 04:09:36;;;;;;;4.43;3.08;;;;;;;14.16;100.00;97186.50;5075155;28;20489;-75
2023/09/01 04:12:03;;;;;;;6.60;3.20;;;;;;;14.15;100.00;97192.88;5074866;28;20434;-75
2023/09/01 04:14:30;;;;;;;6.88;3.83;;;;;;;14.14;100.00;97199.28;5077223;28;20400;-75
2023/09/01 04:16:57;;;;;;;5.75;3.63;;;;;;;14.15;100.00;97194.75;5076496;28;20407;-75
2023/09/01 04:19:23;;;;;;;11.43;4.35;;;;;;;14.11;100.00;97204.38;5075750;28;20442;-75
2023/09/01 04:21:49;;;;;;;7.75;3.85;;;;;;;14.12;100.00;97200.66;5076101;28;20809;-75
2023/09/01 04:24:16;;;;;;;7.30;3.75;;;;;;;14.08;100.00;97192.41;5058081;28;20450;-75
2023/09/01 04:26:42;;;;;;;7.38;3.97;;;;;;;14.08;100.00;97194.28;5076019;28;20395;-75
2023/09/01 04:29:08;;;;;;;13.05;4.72;;;;;;;14.02;100.00;97190.06;5076147;28;20419;-75
2023/09/01 04:31:36;;;;;;;6.15;3.72;;;;;;;14.05;100.00;97184.22;5074870;28;20491;-75
2023/09/01 04:34:04;;;;;;;11.15;4.22;;;;;;;14.02;100.00;97188.22;5075050;28;20421;-75
2023/09/01 04:36:31;;;;;;;8.20;4.17;;;;;;;14.10;100.00;97182.28;5075055;28;20407;-75
2023/09/01 04:38:57;;;;;;;9.77;4.20;;;;;;;14.09;100.00;97187.88;5056982;28;20396;-75
2023/09/01 04:41:23;;;;;;;7.25;3.60;;;;;;;14.17;100.00;97180.09;5074338;28;20435;-75
2023/09/01 04:43:49;;;;;;;10.63;4.13;;;;;;;14.15;100.00;97194.75;5073928;28;20907;-75
2023/09/01 04:46:16;;;;;;;6.78;3.83;;;;;;;14.23;100.00;97184.31;5074770;28;20886;-75
2023/09/01 04:48:43;;;;;;;4.63;3.38;;;;;;;14.26;100.00;97189.09;5074582;28;20443;-75
2023/09/01 04:51:09;;;;;;;7.13;3.70;;;;;;;14.17;100.00;97192.63;5074127;28;20403;-75
2023/09/01 04:53:37;;;;;;;9.07;3.88;;;;;;;14.30;100.00;97189.31;5073695;28;20400;-75
2023/09/01 04:56:03;;;;;;;9.95;3.78;;;;;;;14.33;100.00;97188.75;5073363;28;20425;-75
2023/09/01 04:58:30;;;;;;;6.53;3.57;;;;;;;14.39;100.00;97186.88;5073833;28;20396;-75
2023/09/01 05:00:56;;;;;;;5.38;3.40;;;;;;;14.42;100.00;97194.31;5071793;28;20423;-75
2023/09/01 05:03:22;;;;;;;5.90;3.10;;;;;;;14.45;100.00;97193.75;5074449;28;20433;-75
2023/09/01 05:05:50;;;;;;;6.38;3.20;;;;;;;14.42;100.00;97196.97;5070965;28;20732;-75
2023/09/01 05:08:17;;;;;;;6.40;3.47;;;;;;;14.45;100.00;97191.06;5076941;28;20419;-75
2023/09/01 05:10:43;;;;;;;8.05;3.50;;;;;;;14.48;100.00;97195.84;5071869;28;20400;-75
2023/09/01 05:13:10;;;;;;;5.22;3.22;;;;;;;14.54;100.00;97208.03;5072217;28;20412;-75
2023/09/01 05:15:36;;;;;;;5.38;2.72;;;;;;;14.56;100.00;97209.38;5072647;28;20400;-75
2023/09/01 05:18:03;;;;;;;6.05;3.08;;;;;;;14.58;100.00;97219.75;5071968;28;20439;-75
2023/09/01 05:20:31;;;;;;;6.00;3.40;;;;;;;14.59;100.00;97208.00;5069437;28;20409;-75
2023/09/01 05:23:00;;;;;;;8.63;3.70;;;;;;;14.58;100.00;97211.75;5073945;28;20455;-75
2023/09/01 05:25:26;;;;;;;5.20;2.78;;;;;;;14.61;100.00;97211.97;5074680;28;20419;-75
2023/09/01 05:27:52;;;;;;;4.40;2.80;;;;;;;14.61;100.00;97209.31;5075911;28;20408;-75
2023/09/01 05:30:18;;;;;;;3.00;2.45;;;;;;;14.59;100.00;97213.31;5073302;28;20431;-75
2023/09/01 05:32:46;;;;;;;5.45;2.47;;;;;;;14.60;100.00;97223.69;5069979;28;20490;-75
2023/09/01 05:35:12;;;;;;;4.85;2.70;;;;;;;14.59;100.00;97223.97;5072695;28;20924;-75
2023/09/01 05:37:38;;;;;;;3.20;2.50;;;;;;;14.54;100.00;97224.81;5073874;28;20408;-75
2023/09/01 05:40:07;;;;;;;5.43;2.90;;;;;;;14.48;100.00;97217.97;5072775;28;20784;-74
2023/09/01 05:42:33;;;;;;;3.47;2.70;;;;;;;14.41;100.00;97219.34;5069844;28;20404;-74
2023/09/01 05:45:00;;;;;;;4.65;2.47;;;;;;;14.37;100.00;97227.06;5071509;28;20909;-74
2023/09/01 05:47:26;;;;;;;5.93;2.63;;;;;;;14.35;100.00;97231.91;5068406;28;20738;-74
2023/09/01 05:49:52;;;;;;;3.78;2.40;;;;;;;14.32;100.00;97221.78;5058353;28;20419;-74
2023/09/01 05:52:18;;;;;;;5.22;2.90;;;;;;;14.30;100.00;97232.72;5070959;28;20447;-73
2023/09/01 05:54:44;;;;;;;6.00;2.83;;;;;;;14.28;100.00;97242.84;5071817;28;20415;-73
2023/09/01 05:57:12;;;;;;;5.33;2.90;;;;;;;14.27;100.00;97238.59;5071519;28;20407;-73
2023/09/01 05:59:38;;;;;;;4.88;2.95;;;;;;;14.29;100.00;97241.75;5071738;28;20900;-73
2023/09/01 06:02:04;;;;;;;4.23;2.83;;;;;;;14.33;100.00;97250.00;5071565;28;20419;-73
2023/09/01 06:04:31;;;;;;;6.38;2.83;;;;;;;14.37;100.00;97252.91;5070327;28;20394;-73
2023/09/01 06:06:57;;;;;;;8.17;3.20;;;;;;;14.37;100.00;97258.22;5067329;28;20396;-73
2023/09/01 06:09:23;;;;;;;5.15;3.20;;;;;;;14.35;100.00;97253.19;5071335;28;20454;-73
2023/09/01 06:11:51;;;;;;;7.75;2.90;;;;;;;14.33;100.00;97258.78;5071610;28;20849;-73
2023/09/01 06:14:18;;;;;;;5.07;2.88;;;;;;;14.32;100.00;97262.53;5071772;28;20433;-72
2023/09/01 06:16:47;;;;;;;3.75;2.58;;;;;;;14.29;100.00;97268.38;5071200;28;20396;-72
2023/09/01 06:19:13;;;;;;;6.55;3.55;;;;;;;14.26;100.00;97270.84;5071312;28;20423;-72
2023/09/01 06:21:39;;;;;;;5.32;2.75;;;;;;;14.24;100.00;97264.97;5065560;28;20472;-73
2023/09/01 06:24:06;;;;;;;6.88;3.55;;;;;;;14.22;100.00;97270.56;5071078;28;20504;-72
2023/09/01 06:26:32;;;;;;;5.00;2.85;;;;;;;14.22;100.00;97275.09;5071038;28;20980;-73
2023/09/01 06:28:58;;;;;;;6.13;3.08;;;;;;;14.23;100.00;97271.38;5071145;28;20411;-72
2023/09/01 06:31:25;;;;;;;3.83;2.50;;;;;;;14.25;100.00;97285.22;5071161;28;20437;-72
2023/09/01 06:33:52;;;;;;;8.13;3.80;;;;;;;14.25;100.00;97275.34;5071137;28;20399;-72
2023/09/01 06:36:19;;;;;;;7.13;2.92;;;;;;;14.28;100.00;97288.09;5070427;28;20411;-72
2023/09/01 06:38:45;;;;;;;5.00;2.83;;;;;;;14.29;100.00;97279.03;5071135;28;20403;-73
2023/09/01 06:41:11;;;;;;;5.38;3.00;;;;;;;14.35;100.00;97277.16;5070904;28;20438;-72
2023/09/01 06:43:38;;;;;;;7.38;3.28;;;;;;;14.41;100.00;97275.28;5070961;28;20433;-73
2023/09/01 06:46:04;;;;;;;6.85;3.53;;;;;;;14.50;100.00;97274.41;5071022;28;20395;-73
2023/09/01 06:48:31;;;;;;;8.40;3.35;;;;;;;14.56;100.00;97283.94;5070776;28;20415;-73
2023/09/01 06:51:02;;;;;;;5.83;3.40;;;;;;;14.61;100.00;97275.91;5070661;28;20465;-73
2023/09/01 06:53:28;;;;;;;7.90;3.22;;;;;;;14.66;100.00;97272.41;5070812;28;20407;-73
2023/09/01 06:55:54;;;;;;;8.73;3.03;;;;;;;14.71;100.00;97281.16;5070860;28;20400;-73
2023/09/01 06:58:20;;;;;;;4.40;2.85;;;;;;;14.75;100.00;97277.91;5070666;28;20403;-73
2023/09/01 07:00:47;;;;;;;4.47;2.80;;;;;;;14.76;100.00;97284.84;5070824;28;20434;-73
2023/09/01 07:03:13;;;;;;;4.60;2.50;;;;;;;14.78;100.00;97294.16;5070458;28;20807;-73
2023/09/01 07:05:41;;;;;;;5.40;2.63;;;;;;;14.79;100.00;97286.97;5070750;28;20400;-73
2023/09/01 07:08:14;;;;;;;6.03;2.72;;;;;;;14.80;100.00;97297.34;5070460;28;20408;-70
2023/09/01 07:10:40;;;;;;;4.47;2.40;;;;;;;14.85;100.00;97294.63;5071124;28;20492;-73
2023/09/01 07:13:08;;;;;;;5.50;2.30;;;;;;;14.88;100.00;97301.28;5052585;28;20897;-72
2023/09/01 07:15:35;;;;;;;4.30;2.23;;;;;;;14.89;100.00;97302.84;5070877;28;20407;-73
2023/09/01 07:18:01;;;;;;;11.90;2.97;;;;;;;14.83;100.00;97299.44;5070081;28;20407;-72
2023/09/01 07:20:27;;;;;;;9.30;3.42;;;;;;;14.77;100.00;97300.56;5070062;28;20398;-72
2023/09/01 07:22:55;;;;;;;8.75;3.35;;;;;;;14.74;100.00;97290.44;5070629;28;20774;-72
2023/09/01 07:25:21;;;;;;;4.82;2.50;;;;;;;14.73;100.00;97300.31;5070597;28;20415;-72
2023/09/01 07:27:47;;;;;;;6.57;2.72;;;;;;;14.78;100.00;97288.81;5070669;28;20407;-72
2023/09/01 07:30:14;;;;;;;4.40;2.53;;;;;;;14.84;100.00;97281.56;5070650;28;20440;-72
2023/09/01 07:32:40;;;;;;;3.88;2.35;;;;;;;14.93;100.00;97282.56;5070334;28;20415;-72
2023/09/01 07:35:07;;;;;;;11.60;2.53;;;;;;;15.01;100.00;97288.09;5070267;28;20479;-72
2023/09/01 07:37:33;;;;;;;5.88;2.00;;;;;;;15.10;100.00;97282.94;5070438;28;20410;-72
2023/09/01 07:40:01;;;;;;;3.10;1.80;;;;;;;15.20;100.00;97288.16;5070514;28;21096;-72
2023/09/01 07:42:27;;;;;;;3.83;1.90;;;;;;;15.28;100.00;97289.41;5070202;28;20408;-72
2023/09/01 07:44:54;;;;;;;5.97;2.47;;;;;;;15.30;100.00;97295.25;5070597;28;20435;-72
2023/09/01 07:47:20;;;;;;;10.25;2.30;;;;;;;15.33;100.00;97287.50;5070407;28;20975;-73
2023/09/01 07:49:46;;;;;;;3.40;2.08;;;;;;;15.41;100.00;97297.50;5070391;28;20419;-72
2023/09/01 07:52:13;;;;;;;2.23;1.70;;;;;;;15.51;100.00;97293.94;5070360;28;20546;-73
2023/09/01 07:54:39;;;;;;;2.10;1.60;;;;;;;15.68;100.00;97302.31;5070511;28;20396;-73
2023/09/01 07:57:07;;;;;;;1.95;1.33;;;;;;;15.82;100.00;97305.06;5070521;28;20400;-73
2023/09/01 07:59:33;;;;;;;1.92;1.40;;;;;;;15.90;100.00;97304.44;5070430;28;20399;-73
2023/09/01 08:01:59;;;;;;;5.45;1.90;;;;;;;15.90;100.00;97306.31;5070182;28;20810;-72
2023/09/01 08:04:25;;;;;;;2.88;1.55;;;;;;;15.96;100.00;97310.50;5070337;28;20431;-73
2023/09/01 08:06:51;;;;;;;1.67;1.50;;;;;;;16.00;100.00;97298.19;5070601;28;20553;-72
2023/09/01 08:09:18;;;;;;;1.38;1.27;;;;;;;16.08;100.00;97306.34;5069949;28;20434;-72
2023/09/01 08:11:44;;;;;;;1.33;1.10;;;;;;;16.11;100.00;97313.75;5069839;28;20952;-73
2023/09/01 08:14:12;;;;;;;1.10;1.00;;;;;;;16.17;100.00;97309.13;5069172;28;20404;-73
2023/09/01 08:16:38;;;;;;;1.80;1.20;;;;;;;16.23;100.00;97316.03;5069524;28;20730;-72
2023/09/01 08:19:04;;;;;;;1.40;1.05;;;;;;;16.29;100.00;97317.53;5070056;28;20402;-72
2023/09/01 08:21:31;;;;;;;1.05;0.93;;;;;;;16.36;100.00;97320.63;5069734;28;20871;-73
2023/09/01 08:23:57;;;;;;;1.65;1.13;;;;;;;16.46;100.00;97325.84;5070146;28;20410;-73
2023/09/01 08:26:23;;;;;;;1.10;1.00;;;;;;;16.60;100.00;97325.91;5069584;28;20400;-73
2023/09/01 08:28:49;;;;;;;2.38;1.13;;;;;;;16.73;100.00;97329.72;5069939;28;20484;-73
2023/09/01 08:31:17;;;;;;;2.22;1.10;;;;;;;16.89;100.00;97323.06;5069620;28;21027;-73
2023/09/01 08:33:44;;;;;;;1.58;0.98;;;;;;;17.09;100.00;97321.91;5069792;28;20483;-73
2023/09/01 08:36:10;;;;;;;0.80;0.80;;;;;;;17.21;100.00;97319.56;5069817;28;20929;-73
2023/09/01 08:38:37;;;;;;;1.00;0.90;;;;;;;17.28;100.00;97314.63;5069779;28;20431;-73
2023/09/01 08:41:04;;;;;;;1.90;1.00;;;;;;;17.27;100.00;97323.72;5069460;28;20440;-73
2023/09/01 08:43:36;;;;;;;1.20;0.93;;;;;;;17.30;100.00;97325.81;5069834;28;20425;-73
2023/09/01 08:46:03;;;;;;;1.30;0.80;;;;;;;17.34;100.00;97330.28;5071116;28;20426;-73
2023/09/01 08:48:31;;;;;;;1.10;0.90;;;;;;;17.37;100.00;97327.00;5073214;28;20832;-73
2023/09/01 08:50:58;;;;;;;1.67;1.08;;;;;;;17.36;100.00;97324.66;5073169;28;20447;-73
2023/09/01 08:53:25;;;;;;;1.23;1.13;;;;;;;17.42;100.00;97334.97;5073268;28;20769;-73
2023/09/01 08:55:51;;;;;;;1.30;1.00;;;;;;;17.54;100.00;97334.47;5073359;28;20404;-73
2023/09/01 08:58:17;;;;;;;2.00;1.00;;;;;;;17.49;100.00;97334.56;5073373;28;20772;-73
2023/09/01 09:00:44;;;;;;;0.97;0.93;;;;;;;17.48;100.00;97327.63;5073424;28;20491;-73
2023/09/01 09:03:11;;;;;;;1.17;0.93;;;;;;;17.54;100.00;97322.97;5072947;28;20884;-73
2023/09/01 09:05:39;;;;;;;1.55;1.10;;;;;;;17.50;100.00;97322.78;5073691;28;20400;-74
2023/09/01 09:08:07;;;;;;;2.10;1.00;;;;;;;17.57;100.00;97323.16;5073171;28;20419;-74
2023/09/01 09:10:35;;;;;;;1.00;0.90;;;;;;;17.63;100.00;97327.34;5073152;28;20843;-75
2023/09/01 09:13:03;;;;;;;1.40;0.93;;;;;;;17.76;100.00;97329.22;5072987;28;20433;-74
2023/09/01 09:15:30;;;;;;;1.67;0.90;;;;;;;17.72;100.00;97330.94;5072945;28;20404;-74
2023/09/01 09:17:56;;;;;;;1.70;1.20;;;;;;;17.79;100.00;97325.97;5073422;28;20715;-74
2023/09/01 09:20:35;;;;;;;1.53;1.00;;;;;;;17.88;100.00;97317.25;5073173;28;20396;-74
2023/09/01 09:23:02;;;;;;;0.80;0.80;;;;;;;17.98;100.00;97320.47;5072931;28;20427;-75
2023/09/01 09:25:29;;;;;;;1.20;0.95;;;;;;;18.00;100.00;97326.34;5072798;28;20565;-75
2023/09/01 09:27:57;;;;;;;0.80;0.80;;;;;;;18.10;100.00;97323.47;5072916;28;20396;-74
2023/09/01 09:30:27;;;;;;;0.70;0.70;;;;;;;18.30;100.00;97324.88;5072695;28;20411;-74
2023/09/01 09:33:03;;;;;;;1.05;0.85;;;;;;;18.42;100.00;97327.03;5072466;28;20411;-75
2023/09/01 09:35:30;;;;;;;0.90;0.70;;;;;;;18.50;100.00;97334.34;5054666;28;20919;-77
2023/09/01 09:38:00;;;;;;;1.05;0.90;;;;;;;18.41;100.00;97334.31;5072735;28;20403;-74
2023/09/01 09:40:28;;;;;;;1.17;1.00;;;;;;;18.36;100.00;97336.28;5072683;28;20479;-74
2023/09/01 09:42:59;;;;;;;1.20;0.98;;;;;;;18.17;100.00;97344.47;5072342;28;20403;-74
2023/09/01 09:45:31;;;;;;;1.55;1.10;;;;;;;18.07;100.00;97340.13;5072492;28;20893;-74
2023/09/01 09:48:00;;;;;;;1.58;1.20;;;;;;;17.97;100.00;97336.84;5072556;28;20406;-74
2023/09/01 09:50:29;;;;;;;1.25;1.10;;;;;;;17.89;100.00;97351.75;5072423;28;20439;-74
2023/09/01 09:52:58;;;;;;;1.70;1.10;;;;;;;17.82;100.00;97345.22;5072118;28;20395;-74
2023/09/01 09:55:27;;;;;;;2.33;1.33;;;;;;;17.67;100.00;97341.72;5072272;28;20511;-74
2023/09/01 09:58:03;;;;;;;1.60;1.40;;;;;;;17.57;100.00;97357.16;5072139;28;20396;-73
2023/09/01 10:00:31;;;;;;;1.95;1.20;;;;;;;17.48;100.00;97353.59;5071487;28;20796;-73
2023/09/01 10:03:01;;;;;;;1.25;1.15;;;;;;;17.40;100.00;97349.72;5071236;28;20422;-73
2023/09/01 10:05:31;;;;;;;1.38;1.20;;;;;;;17.30;100.00;97347.22;5072185;28;20475;-73
2023/09/01 10:08:00;;;;;;;2.00;1.30;;;;;;;17.25;100.00;97355.34;5072193;28;20400;-73
2023/09/01 10:10:27;;;;;;;1.58;1.40;;;;;;;17.19;100.00;97357.31;5071918;28;20507;-73
2023/09/01 10:12:55;;;;;;;2.40;1.33;;;;;;;17.21;100.00;97347.13;5071994;28;20486;-73
2023/09/01 10:15:21;;;;;;;1.45;1.35;;;;;;;17.23;100.00;97354.81;5071998;28;20399;-73
2023/09/01 10:17:49;;;;;;;1.63;1.27;;;;;;;17.27;100.00;97347.81;5071930;28;20442;-73
2023/09/01 10:20:16;;;;;;;1.90;1.40;;;;;;;17.32;100.00;97351.19;5071893;28;20395;-73
2023/09/01 10:22:43;;;;;;;1.45;1.35;;;;;;;17.41;100.00;97351.31;5071600;28;20434;-73
2023/09/01 10:25:11;;;;;;;1.10;1.00;;;;;;;17.53;100.00;97348.91;5071666;28;20435;-73
2023/09/01 10:28:00;;;;;;;1.10;1.02;;;;;;;17.66;100.00;97347.41;5071362;28;20402;-73
2023/09/01 10:30:27;;;;;;;1.00;0.90;;;;;;;17.79;100.00;97347.38;5070626;28;20439;-73
2023/09/01 10:33:04;;;;;;;0.90;0.90;;;;;;;17.89;100.00;97345.59;5071290;28;20483;-73
2023/09/01 10:35:38;;;;;;;1.05;0.90;;;;;;;17.96;100.00;97346.78;5071159;28;20423;-73
2023/09/01 10:38:35;;;;;;;0.75;0.70;;;;;;;18.01;100.00;97344.00;5071490;28;20490;-73
2023/09/01 10:41:01;;;;;;;1.08;0.98;;;;;;;18.02;100.00;97344.78;5070097;28;20874;-73
2023/09/01 10:43:51;;;;;;;0.93;0.93;;;;;;;18.06;100.00;97346.56;5071388;28;20418;-73
2023/09/01 10:46:25;;;;;;;0.90;0.90;;;;;;;18.15;100.00;97343.97;5071226;28;20416;-73
2023/09/01 10:48:52;;;;;;;1.13;0.80;;;;;;;18.27;100.00;97346.91;5071163;28;20812;-74
2023/09/01 10:51:19;;;;;;;0.98;0.95;;;;;;;18.37;100.00;97346.72;5070867;28;20399;-73
2023/09/01 10:53:46;;;;;;;1.20;0.90;;;;;;;18.47;100.00;97340.34;5070412;28;20823;-74
2023/09/01 10:56:14;;;;;;;1.98;1.00;;;;;;;18.49;100.00;97346.97;5070341;28;20897;-73
2023/09/01 10:58:48;;;;;;;1.40;1.00;;;;;;;18.51;100.00;97346.66;5069253;28;20388;-74
2023/09/01 11:01:30;;;;;;;0.90;0.90;;;;;;;18.53;100.00;97347.16;5070155;28;20392;-73
2023/09/01 11:04:12;;;;;;;1.40;1.30;;;;;;;18.54;100.00;97349.53;5069481;28;20403;-73
2023/09/01 11:06:59;;;;;;;1.95;1.30;;;;;;;18.62;100.00;97344.59;5069280;28;20416;-74
2023/09/01 11:09:47;;;;;;;1.77;1.23;;;;;;;18.71;100.00;97340.09;5068834;28;20419;-73
2023/09/01 11:12:14;;;;;;;1.10;1.00;;;;;;;18.81;100.00;97339.81;5069076;28;20400;-73
2023/09/01 11:14:54;;;;;;;1.40;1.30;;;;;;;18.92;100.00;97333.13;5070556;28;20407;-74
2023/09/01 11:17:40;;;;;;;1.20;1.10;;;;;;;19.04;100.00;97338.72;5070850;28;20453;-74
2023/09/01 11:20:11;;;;;;;2.42;1.40;;;;;;;19.09;100.00;97332.44;5070833;28;20396;-74
2023/09/01 11:22:39;;;;;;;1.88;1.40;;;;;;;19.17;100.00;97339.75;5070373;28;20814;-73
2023/09/01 11:25:09;;;;;;;1.80;1.45;;;;;;;19.26;100.00;97340.59;5070567;28;20410;-74
2023/09/01 11:27:36;;;;;;;2.22;1.70;;;;;;;19.44;100.00;97338.78;5070738;28;20404;-73